Time;durP1;ratioP1;P1;durP2;ratioP2;P2;SDS_P1;SDS_P2;PMS_P1;PMS_P2;Temp;Humidity;BMP_temperature;BMP_pressure;BME280_temperature;BME280_humidity;BME280_pressure;Samples;Min_cycle;Max_cycle;Signal;HPM_P1;HPM_P2
2022/05/14 00:01:27;;;;;;;4.75;3.65;;;;;;;12.69;100.00;90896.56;5014583;28;20563;-63
2022/05/14 00:03:52;;;;;;;4.45;3.55;;;;;;;12.78;100.00;90900.00;5014453;28;20488;-63
2022/05/14 00:06:21;;;;;;;5.28;3.67;;;;;;;12.81;100.00;90891.31;5014452;28;20108;-63
2022/05/14 00:08:47;;;;;;;4.32;3.83;;;;;;;12.92;100.00;90890.94;5014332;28;20030;-63
2022/05/14 00:13:57;;;;;;;4.25;3.35;;;;;;;13.09;100.00;90885.50;5014596;28;20092;-63
2022/05/14 00:16:25;;;;;;;4.97;3.40;;;;;;;13.15;100.00;90885.00;5014147;28;20038;-63
2022/05/14 00:18:52;;;;;;;4.45;3.72;;;;;;;13.17;100.00;90879.31;5014136;28;20034;-63
2022/05/14 00:21:19;;;;;;;3.88;3.47;;;;;;;13.17;100.00;90877.44;5014206;28;20030;-63
2022/05/14 00:23:45;;;;;;;4.90;3.00;;;;;;;13.18;100.00;90880.91;5014175;28;20033;-63
2022/05/14 00:26:11;;;;;;;7.13;3.70;;;;;;;13.17;100.00;90877.44;5014054;28;20045;-63
2022/05/14 00:28:37;;;;;;;4.63;3.83;;;;;;;13.01;100.00;90870.31;5014117;28;20030;-63
2022/05/14 00:31:03;;;;;;;4.47;3.65;;;;;;;12.95;100.00;90874.28;5013360;28;20059;-63
2022/05/14 00:33:29;;;;;;;4.97;3.38;;;;;;;12.86;100.00;90866.31;5013966;28;20488;-63
2022/05/14 00:35:55;;;;;;;9.40;3.33;;;;;;;12.96;100.00;90871.31;5013852;28;20037;-63
2022/05/14 00:38:20;;;;;;;4.00;3.55;;;;;;;12.95;100.00;90864.41;5014022;28;20042;-64
2022/05/14 00:40:54;;;;;;;7.00;4.32;;;;;;;12.90;100.00;90873.34;5013839;28;20029;-63
2022/05/14 00:43:21;;;;;;;4.75;3.75;;;;;;;12.92;100.00;90869.56;5013754;28;20038;-63
2022/05/14 00:46:15;;;;;;;4.80;3.35;;;;;;;12.88;100.00;90874.78;5013734;28;20022;-63
2022/05/14 00:48:43;;;;;;;4.15;3.35;;;;;;;12.79;100.00;90866.84;5013656;28;20026;-63
2022/05/14 00:51:14;;;;;;;5.35;3.75;;;;;;;12.71;100.00;90865.00;5013594;28;20073;-63
2022/05/14 00:53:44;;;;;;;5.07;3.42;;;;;;;12.63;100.00;90862.38;5013573;28;20407;-63
2022/05/14 00:56:15;;;;;;;4.25;3.45;;;;;;;12.60;100.00;90864.56;5013406;28;20519;-63
2022/05/14 00:59:06;;;;;;;4.45;3.72;;;;;;;12.53;100.00;90866.97;5012039;28;20420;-63
2022/05/14 01:01:32;;;;;;;5.40;3.45;;;;;;;12.46;100.00;90863.22;5013415;28;20026;-63
2022/05/14 01:03:58;;;;;;;3.63;3.28;;;;;;;12.45;100.00;90861.66;5013321;28;20091;-63
2022/05/14 01:06:25;;;;;;;4.65;3.40;;;;;;;12.47;100.00;90870.16;5013384;28;20022;-63
2022/05/14 01:08:51;;;;;;;3.55;3.05;;;;;;;12.42;100.00;90856.97;5013192;28;20025;-63
2022/05/14 01:11:17;;;;;;;4.75;3.60;;;;;;;12.45;100.00;90872.34;5013222;28;20475;-63
2022/05/14 01:13:43;;;;;;;4.05;3.30;;;;;;;12.40;100.00;90865.28;5013219;28;20522;-63
2022/05/14 01:16:08;;;;;;;4.32;3.35;;;;;;;12.43;100.00;90864.66;5013031;28;20021;-63
2022/05/14 01:18:36;;;;;;;7.28;3.42;;;;;;;12.47;100.00;90862.16;5013001;28;20113;-63
2022/05/14 01:21:05;;;;;;;3.75;3.10;;;;;;;12.52;100.00;90862.75;5013050;28;20021;-63
2022/05/14 01:26:27;;;;;;;3.38;3.08;;;;;;;12.64;100.00;90853.28;5013012;28;20033;-63
2022/05/14 01:26:30;;;;;;;5.65;3.30;;;;;;;12.81;100.00;90856.63;5012791;28;20096;-63
2022/05/14 01:29:03;;;;;;;3.75;3.35;;;;;;;12.78;100.00;90854.59;5012776;28;20065;-62
2022/05/14 01:31:29;;;;;;;4.27;3.53;;;;;;;12.80;100.00;90860.41;5012972;28;20109;-63
2022/05/14 01:33:58;;;;;;;4.15;3.13;;;;;;;12.80;100.00;90855.06;5012989;28;20276;-63
2022/05/14 01:36:24;;;;;;;4.57;3.40;;;;;;;12.81;100.00;90856.63;5013252;28;20029;-63
2022/05/14 01:38:50;;;;;;;4.15;3.70;;;;;;;12.78;100.00;90853.78;5012743;28;20034;-62
2022/05/14 01:41:15;;;;;;;5.53;3.58;;;;;;;12.79;100.00;90858.06;5011816;28;20034;-62
2022/05/14 01:43:41;;;;;;;4.45;3.58;;;;;;;12.71;100.00;90858.88;5012658;28;20030;-63
2022/05/14 01:46:07;;;;;;;3.53;3.22;;;;;;;12.71;100.00;90851.66;5012512;28;20034;-63
2022/05/14 01:48:33;;;;;;;5.38;3.80;;;;;;;12.75;100.00;90857.13;5012481;28;20491;-63
2022/05/14 01:50:59;;;;;;;5.82;3.65;;;;;;;12.76;100.00;90850.66;5012442;28;20145;-63
2022/05/14 01:53:25;;;;;;;4.07;3.67;;;;;;;12.73;100.00;90854.00;5012776;28;20471;-63
2022/05/14 01:55:50;;;;;;;4.50;3.53;;;;;;;12.76;100.00;90856.00;5012366;28;20555;-63
2022/05/14 02:01:00;;;;;;;3.88;3.30;;;;;;;12.75;100.00;90844.56;5012526;28;20041;-62
2022/05/14 02:03:25;;;;;;;3.38;3.05;;;;;;;12.77;100.00;90847.69;5012318;28;20033;-62
2022/05/14 02:05:51;;;;;;;3.80;3.28;;;;;;;12.77;100.00;90857.56;5012315;28;20057;-63
2022/05/14 02:08:16;;;;;;;5.20;3.65;;;;;;;12.68;100.00;90849.63;5012027;28;20022;-62
2022/05/14 02:10:42;;;;;;;4.70;3.42;;;;;;;12.63;100.00;90852.50;5012228;28;20037;-63
2022/05/14 02:13:09;;;;;;;5.55;3.60;;;;;;;12.66;100.00;90848.38;5012156;28;20030;-63
2022/05/14 02:15:35;;;;;;;5.07;3.30;;;;;;;12.58;100.00;90833.97;5012027;28;20553;-63
2022/05/14 02:18:00;;;;;;;3.38;3.08;;;;;;;12.52;100.00;90840.59;5012030;28;20116;-63
2022/05/14 02:20:26;;;;;;;4.25;3.78;;;;;;;12.55;100.00;90839.97;5012051;28;20173;-63
2022/05/14 02:22:51;;;;;;;3.72;3.42;;;;;;;12.53;100.00;90828.84;5012031;28;20065;-64
2022/05/14 02:25:19;;;;;;;3.95;3.58;;;;;;;12.54;100.00;90839.19;5011912;28;20022;-62
2022/05/14 02:27:45;;;;;;;3.45;3.15;;;;;;;12.53;100.00;90842.97;5011845;28;20030;-63
2022/05/14 02:30:12;;;;;;;4.22;3.75;;;;;;;12.51;100.00;90839.84;5011949;28;20480;-62
2022/05/14 02:32:38;;;;;;;6.38;4.22;;;;;;;12.52;100.00;90835.28;5011868;28;20416;-62
2022/05/14 02:35:04;;;;;;;4.72;3.25;;;;;;;12.54;100.00;90838.41;5011752;28;20030;-63
2022/05/14 02:37:32;;;;;;;3.45;2.90;;;;;;;12.54;100.00;90838.41;5011702;28;20037;-63
2022/05/14 02:39:57;;;;;;;3.83;3.42;;;;;;;12.58;100.00;90842.75;5011740;28;20172;-63
2022/05/14 02:42:23;;;;;;;5.15;3.47;;;;;;;12.55;100.00;90848.75;5011739;28;20112;-63
2022/05/14 02:44:48;;;;;;;4.07;3.53;;;;;;;12.57;100.00;90843.09;5011704;28;20423;-63
2022/05/14 02:47:15;;;;;;;3.42;3.13;;;;;;;12.56;100.00;90833.53;5011733;28;20030;-63
2022/05/14 02:49:40;;;;;;;7.82;4.13;;;;;;;12.57;100.00;90837.75;5011362;28;20048;-63
2022/05/14 02:52:07;;;;;;;3.65;2.88;;;;;;;12.56;100.00;90838.84;5011373;28;20022;-63
2022/05/14 02:54:32;;;;;;;5.78;3.38;;;;;;;12.51;100.00;90833.72;5011516;28;20057;-62
2022/05/14 02:56:58;;;;;;;4.97;3.60;;;;;;;12.36;100.00;90836.94;5011478;28;20076;-63
2022/05/14 02:59:23;;;;;;;3.72;3.17;;;;;;;12.27;100.00;90839.63;5011405;28;20034;-63
2022/05/14 03:01:49;;;;;;;4.15;3.53;;;;;;;12.24;100.00;90838.38;5011482;28;20105;-63
2022/05/14 03:04:29;;;;;;;4.00;3.35;;;;;;;12.38;100.00;90845.38;5011518;28;20034;-63
2022/05/14 03:06:56;;;;;;;3.53;3.22;;;;;;;12.40;100.00;90843.19;5011729;28;20025;-63
2022/05/14 03:09:23;;;;;;;10.18;3.50;;;;;;;12.41;100.00;90845.53;5011282;28;20045;-62
2022/05/14 03:11:49;;;;;;;6.28;3.22;;;;;;;12.47;100.00;90841.59;5011427;28;20030;-63
2022/05/14 03:14:15;;;;;;;5.47;3.50;;;;;;;12.48;100.00;90840.47;5011306;28;20038;-63
2022/05/14 03:16:41;;;;;;;3.20;2.90;;;;;;;12.46;100.00;90852.56;5011583;28;20021;-63
2022/05/14 03:19:08;;;;;;;5.10;3.35;;;;;;;12.48;100.00;90835.16;5011192;28;20030;-63
2022/05/14 03:21:35;;;;;;;3.45;3.15;;;;;;;12.55;100.00;90845.31;5011298;28;20037;-63
2022/05/14 03:24:01;;;;;;;3.40;2.92;;;;;;;12.51;100.00;90844.38;5011252;28;20025;-63
2022/05/14 03:26:26;;;;;;;7.05;3.28;;;;;;;12.46;100.00;90852.56;5011261;28;20037;-63
2022/05/14 03:28:52;;;;;;;6.35;3.38;;;;;;;12.38;100.00;90846.16;5011108;28;20025;-63
2022/05/14 03:31:17;;;;;;;4.82;3.83;;;;;;;12.48;100.00;90845.03;5011294;28;20432;-63
2022/05/14 03:33:43;;;;;;;4.35;3.47;;;;;;;12.55;100.00;90853.31;5011205;28;20113;-63
2022/05/14 03:36:08;;;;;;;3.63;3.17;;;;;;;12.63;100.00;90846.38;5011102;28;20026;-63
2022/05/14 03:38:35;;;;;;;4.25;3.30;;;;;;;12.59;100.00;90846.22;5011298;28;20105;-63
2022/05/14 03:41:01;;;;;;;3.50;3.17;;;;;;;12.74;100.00;90850.22;5011118;28;20096;-63
2022/05/14 03:43:26;;;;;;;4.63;3.13;;;;;;;12.81;100.00;90853.97;5011366;28;20034;-63
2022/05/14 03:45:52;;;;;;;4.05;3.17;;;;;;;12.87;100.00;90847.31;5011314;28;20648;-63
2022/05/14 03:48:17;;;;;;;3.47;3.17;;;;;;;12.98;100.00;90857.63;5011179;28;20480;-63
2022/05/14 03:50:43;;;;;;;5.22;3.83;;;;;;;13.08;100.00;90862.56;5010847;28;20401;-63
2022/05/14 03:53:09;;;;;;;7.55;3.50;;;;;;;13.10;100.00;90863.03;5010934;28;20022;-63
2022/05/14 03:55:34;;;;;;;3.78;3.33;;;;;;;13.14;100.00;90863.94;5010878;28;20034;-63
2022/05/14 03:58:00;;;;;;;3.90;3.30;;;;;;;13.08;100.00;90859.88;5010831;28;20054;-63
2022/05/14 04:00:25;;;;;;;4.88;3.67;;;;;;;13.11;100.00;90872.63;5010948;28;20484;-63
2022/05/14 04:02:51;;;;;;;3.65;3.35;;;;;;;13.10;100.00;90871.84;5010962;28;20029;-63
2022/05/14 04:05:16;;;;;;;3.13;2.83;;;;;;;13.04;100.00;90870.44;5012520;28;20037;-63
2022/05/14 04:07:43;;;;;;;4.63;3.05;;;;;;;13.07;100.00;90871.69;5014430;28;20034;-63
2022/05/14 04:10:10;;;;;;;3.28;2.75;;;;;;;13.16;100.00;90870.53;5014313;28;20121;-63
2022/05/14 04:12:35;;;;;;;4.00;3.40;;;;;;;13.34;100.00;90876.56;5014448;28;20157;-63
2022/05/14 04:15:02;;;;;;;3.97;3.22;;;;;;;13.47;100.00;90880.06;5014453;28;20108;-63
2022/05/14 04:17:28;;;;;;;4.53;3.78;;;;;;;13.59;100.00;90877.47;5014598;28;20026;-63
2022/05/14 04:19:54;;;;;;;3.67;3.03;;;;;;;13.77;100.00;90873.53;5014662;28;20111;-63
2022/05/14 04:22:19;;;;;;;5.13;3.50;;;;;;;13.87;100.00;90875.00;5014396;28;20057;-63
2022/05/14 04:24:45;;;;;;;4.40;3.38;;;;;;;13.90;100.00;90879.72;5012865;28;20039;-63
2022/05/14 04:27:10;;;;;;;4.65;3.78;;;;;;;14.28;100.00;90878.69;5014080;28;20025;-62
2022/05/14 04:29:36;;;;;;;4.25;3.28;;;;;;;14.63;100.00;90879.09;5013955;28;20478;-63
2022/05/14 04:32:01;;;;;;;5.38;3.83;;;;;;;14.74;100.00;90888.25;5013944;28;20029;-63
2022/05/14 04:34:27;;;;;;;3.83;3.22;;;;;;;15.02;99.01;90882.22;5013858;28;20034;-63
2022/05/14 04:36:52;;;;;;;12.13;5.90;;;;;;;15.19;97.19;90880.09;5013857;28;20116;-63
2022/05/14 04:39:18;;;;;;;9.52;5.15;;;;;;;15.01;97.70;90886.03;5013689;28;20057;-63
2022/05/14 04:41:43;;;;;;;5.15;3.53;;;;;;;15.30;96.82;90883.06;5013764;28;20053;-63
2022/05/14 04:44:08;;;;;;;10.93;4.97;;;;;;;15.60;94.12;90893.53;5013686;28;20088;-63
2022/05/14 04:46:35;;;;;;;5.43;3.45;;;;;;;15.79;92.29;90883.00;5013736;28;20105;-63
2022/05/14 04:49:01;;;;;;;5.60;3.38;;;;;;;15.97;91.24;90883.47;5013381;28;20054;-63
2022/05/14 04:51:27;;;;;;;4.32;3.33;;;;;;;16.18;90.12;90898.25;5013604;28;20034;-63
2022/05/14 04:53:52;;;;;;;5.00;3.67;;;;;;;16.33;89.03;90893.25;5013578;28;20547;-63
2022/05/14 04:56:17;;;;;;;6.05;3.70;;;;;;;16.45;89.36;90899.34;5013388;28;20030;-63
2022/05/14 04:58:43;;;;;;;5.78;3.40;;;;;;;16.56;88.19;90890.75;5013568;28;20452;-63
2022/05/14 05:01:08;;;;;;;4.55;3.25;;;;;;;16.80;87.52;90895.25;5013468;28;20412;-63
2022/05/14 05:03:34;;;;;;;3.90;3.15;;;;;;;16.91;85.18;90899.75;5013387;28;20030;-63
2022/05/14 05:06:01;;;;;;;26.25;11.00;;;;;;;16.84;84.29;90899.56;5013252;28;20076;-63
2022/05/14 05:08:31;;;;;;;4.78;3.40;;;;;;;17.05;83.31;90902.00;5013446;28;20040;-63
2022/05/14 05:10:58;;;;;;;9.02;4.63;;;;;;;17.02;82.03;90898.06;5012767;28;20045;-63
2022/05/14 05:13:27;;;;;;;8.30;4.25;;;;;;;17.36;81.31;90898.50;5013095;28;20496;-63
2022/05/14 05:15:52;;;;;;;4.20;3.72;;;;;;;17.60;79.52;90900.16;5012674;28;20026;-63
2022/05/14 05:18:19;;;;;;;4.07;3.63;;;;;;;17.38;80.66;90909.66;5012789;28;20107;-63
2022/05/14 05:20:48;;;;;;;6.20;4.20;;;;;;;17.14;83.77;90912.56;5012922;28;20551;-63
2022/05/14 05:23:18;;;;;;;8.77;3.88;;;;;;;17.29;84.70;90911.75;5012856;28;20033;-64
2022/05/14 05:25:43;;;;;;;4.30;3.83;;;;;;;17.39;81.00;90905.06;5012772;28;20099;-62
2022/05/14 05:28:09;;;;;;;4.30;3.67;;;;;;;17.45;80.00;90909.81;5012496;28;20029;-62
2022/05/14 05:30:35;;;;;;;3.88;3.55;;;;;;;17.42;79.67;90907.06;5012501;28;20022;-62
2022/05/14 05:33:00;;;;;;;7.20;4.95;;;;;;;17.37;80.84;90918.88;5012619;28;20057;-62
2022/05/14 05:35:27;;;;;;;7.22;4.70;;;;;;;17.77;78.53;90909.75;5012436;28;20080;-62
2022/05/14 05:37:52;;;;;;;4.90;3.78;;;;;;;18.20;76.33;90911.41;5012626;28;20412;-62
2022/05/14 05:40:18;;;;;;;8.05;3.63;;;;;;;18.54;73.60;90921.31;5012311;28;20040;-62
2022/05/14 05:42:44;;;;;;;5.45;3.78;;;;;;;18.93;71.91;90923.16;5012509;28;20037;-62
2022/05/14 05:45:13;;;;;;;5.35;3.92;;;;;;;19.11;69.77;90924.25;5012458;28;20022;-62
2022/05/14 05:47:39;;;;;;;4.20;3.30;;;;;;;19.04;70.00;90924.91;5012607;28;20034;-63
2022/05/14 05:50:05;;;;;;;4.32;3.33;;;;;;;19.21;69.54;90923.63;5012200;28;20176;-63
2022/05/14 05:52:32;;;;;;;5.00;3.80;;;;;;;19.25;69.77;90924.50;5012667;28;20036;-62
2022/05/14 05:57:42;;;;;;;5.25;3.55;;;;;;;19.42;67.44;90921.28;5012190;28;20036;-63
2022/05/14 06:00:18;;;;;;;6.05;3.45;;;;;;;19.47;68.33;90922.13;5012193;28;20030;-63
2022/05/14 06:02:46;;;;;;;5.45;3.92;;;;;;;19.82;66.05;90919.94;5009101;28;20065;-64
2022/05/14 06:05:11;;;;;;;8.45;3.90;;;;;;;20.08;65.40;90932.66;5011768;28;20022;-64
2022/05/14 06:07:38;;;;;;;5.20;3.88;;;;;;;20.26;65.12;90922.06;5019512;28;20506;-65
2022/05/14 06:10:06;;;;;;;5.82;4.22;;;;;;;21.04;61.71;90916.75;5030211;28;20108;-68
2022/05/14 06:12:32;;;;;;;5.82;3.50;;;;;;;21.33;60.46;90924.00;5030827;28;20034;-64
2022/05/14 06:14:57;;;;;;;4.90;3.80;;;;;;;21.38;60.79;90920.16;5030997;28;20040;-64
2022/05/14 06:17:23;;;;;;;6.82;4.35;;;;;;;22.62;58.81;90918.19;5030748;28;20095;-63
2022/05/14 06:19:48;;;;;;;16.73;3.72;;;;;;;22.72;56.89;90935.66;5031036;28;20029;-64
2022/05/14 06:22:14;;;;;;;4.70;3.15;;;;;;;21.75;58.21;90926.22;5030970;28;20108;-63
2022/05/14 06:24:39;;;;;;;4.13;3.30;;;;;;;21.64;59.47;90932.75;5030797;28;20112;-65
2022/05/14 06:27:05;;;;;;;7.50;4.18;;;;;;;21.23;60.65;90935.47;5029459;28;20479;-65
2022/05/14 06:29:31;;;;;;;8.15;3.60;;;;;;;20.73;62.92;90934.22;5030674;28;20649;-64
2022/05/14 06:31:58;;;;;;;16.63;4.18;;;;;;;20.46;63.83;90945.09;5030162;28;20030;-65
2022/05/14 06:34:24;;;;;;;7.68;4.05;;;;;;;19.65;67.00;90945.56;5030720;28;20037;-66
2022/05/14 06:36:51;;;;;;;16.80;8.48;;;;;;;19.13;73.00;90951.63;5030658;28;20112;-65
2022/05/14 06:39:17;;;;;;;14.55;7.10;;;;;;;18.50;91.45;90941.25;5029710;28;20037;-64
2022/05/14 06:41:43;;;;;;;24.05;7.88;;;;;;;18.09;97.45;90938.13;5030425;28;20080;-65
2022/05/14 06:44:08;;;;;;;16.85;7.20;;;;;;;17.88;100.00;90940.38;5028706;28;20072;-64
2022/05/14 06:46:35;;;;;;;9.88;6.13;;;;;;;17.11;100.00;90940.13;5029907;28;20025;-64
2022/05/14 06:49:01;;;;;;;11.05;6.95;;;;;;;16.80;100.00;90930.94;5030771;28;20030;-63
2022/05/14 06:51:29;;;;;;;16.13;8.43;;;;;;;16.76;100.00;90943.50;5030952;28;20519;-64
2022/05/14 06:54:00;;;;;;;20.45;7.95;;;;;;;16.96;100.00;90944.38;5030123;28;20038;-64
2022/05/14 06:56:27;;;;;;;11.90;7.50;;;;;;;17.10;100.00;90955.47;5030681;28;20021;-64
2022/05/14 06:58:54;;;;;;;11.18;7.10;;;;;;;17.25;100.00;90956.59;5030148;28;20037;-65
2022/05/14 07:01:20;;;;;;;9.65;8.27;;;;;;;17.13;100.00;90964.75;5030296;28;20515;-65
2022/05/14 07:06:37;;;;;;;9.13;7.00;;;;;;;16.83;100.00;90967.06;5030893;28;20116;-64
2022/05/14 07:09:04;;;;;;;9.00;7.07;;;;;;;16.85;100.00;90978.25;5029980;28;20030;-64
2022/05/14 07:11:29;;;;;;;12.70;7.03;;;;;;;16.65;100.00;90985.41;5030613;28;20073;-65
2022/05/14 07:13:55;;;;;;;8.95;6.32;;;;;;;16.06;100.00;90986.84;5030372;28;20037;-65
2022/05/14 07:16:20;;;;;;;9.40;5.85;;;;;;;15.83;100.00;90986.59;5030094;28;20483;-65
2022/05/14 07:18:46;;;;;;;9.10;7.30;;;;;;;15.72;100.00;90995.41;5030489;28;20033;-67
2022/05/14 07:21:13;;;;;;;10.23;7.50;;;;;;;15.74;100.00;90993.97;5030742;28;20033;-70
2022/05/14 07:23:39;;;;;;;14.68;7.90;;;;;;;15.97;100.00;90996.16;5034210;28;20412;-68
2022/05/14 07:26:06;;;;;;;13.15;8.55;;;;;;;16.06;100.00;91013.69;5030508;28;20033;-66
2022/05/14 07:28:33;;;;;;;16.48;11.88;;;;;;;15.99;100.00;91018.06;5029925;28;20033;-70
2022/05/14 07:31:01;;;;;;;11.88;7.78;;;;;;;15.90;100.00;91017.41;5030695;28;20462;-70
2022/05/14 07:33:27;;;;;;;14.30;9.45;;;;;;;15.75;100.00;91026.94;5029976;28;20021;-69
2022/05/14 07:35:53;;;;;;;12.85;10.00;;;;;;;15.72;100.00;91017.66;5030811;28;20384;-69
2022/05/14 07:38:18;;;;;;;14.95;10.57;;;;;;;15.97;100.00;91025.69;5030276;28;20056;-69
2022/05/14 07:40:44;;;;;;;17.48;10.05;;;;;;;16.12;100.00;91020.41;5032379;28;20487;-69
2022/05/14 07:43:21;;;;;;;28.58;15.98;;;;;;;16.45;100.00;91022.88;5033065;28;20475;-67
2022/05/14 07:45:52;;;;;;;20.27;12.10;;;;;;;16.47;100.00;91028.66;5033948;28;20025;-67
2022/05/14 07:48:24;;;;;;;22.20;13.52;;;;;;;16.53;100.00;91033.78;5033684;28;20029;-67
2022/05/14 07:50:50;;;;;;;15.00;8.50;;;;;;;16.53;100.00;91039.16;5033788;28;20041;-67
2022/05/14 07:53:17;;;;;;;10.15;7.60;;;;;;;16.60;100.00;91040.16;5034026;28;20499;-67
2022/05/14 07:55:43;;;;;;;10.48;7.15;;;;;;;16.70;100.00;91042.34;5033616;28;20025;-68
2022/05/14 07:58:09;;;;;;;9.48;6.55;;;;;;;16.77;100.00;91029.13;5033195;28;20037;-69
2022/05/14 08:00:35;;;;;;;10.00;6.47;;;;;;;16.99;100.00;91035.84;5033806;28;20468;-71
2022/05/14 08:03:02;;;;;;;11.27;7.00;;;;;;;16.91;100.00;91022.56;5034097;28;20101;-73
2022/05/14 08:05:27;;;;;;;7.97;5.63;;;;;;;17.14;100.00;91031.63;5033848;28;20039;-67
2022/05/14 08:07:53;;;;;;;6.97;5.60;;;;;;;17.20;100.00;91032.94;5033803;28;20033;-68
2022/05/14 08:10:19;;;;;;;9.05;6.35;;;;;;;17.14;100.00;91036.22;5033931;28;20057;-66
2022/05/14 08:12:50;;;;;;;12.68;6.47;;;;;;;17.05;100.00;91039.06;5033789;28;20063;-67
2022/05/14 08:15:16;;;;;;;8.93;6.18;;;;;;;17.10;100.00;91038.03;5033230;28;20747;-67
2022/05/14 08:17:43;;;;;;;13.30;6.75;;;;;;;17.20;100.00;91040.19;5033722;28;20064;-68
2022/05/14 08:20:09;;;;;;;11.98;7.57;;;;;;;17.16;100.00;91028.56;5033591;28;20030;-67
2022/05/14 08:25:19;;;;;;;8.45;5.70;;;;;;;17.52;100.00;91036.41;5033923;28;20036;-66
2022/05/14 08:27:44;;;;;;;6.45;4.68;;;;;;;17.90;100.00;91037.69;5033529;28;20026;-72
2022/05/14 08:30:24;;;;;;;7.63;4.25;;;;;;;18.32;100.00;91034.38;5033071;28;20414;-70
2022/05/14 08:32:49;;;;;;;7.50;4.55;;;;;;;19.55;100.00;91023.63;5033328;28;20052;-69
2022/05/14 08:35:16;;;;;;;6.45;4.40;;;;;;;21.32;98.71;91024.50;5033309;28;20032;-69
2022/05/14 08:37:41;;;;;;;7.00;4.70;;;;;;;22.73;84.21;91024.03;5033098;28;20053;-70
2022/05/14 08:40:17;;;;;;;6.18;4.28;;;;;;;22.59;81.30;91021.22;5033048;28;20061;-70
2022/05/14 08:42:47;;;;;;;4.97;3.67;;;;;;;22.74;73.80;91020.16;5033055;28;20075;-73
2022/05/14 08:45:15;;;;;;;6.35;4.10;;;;;;;23.38;72.79;91028.53;5033298;28;20026;-70
2022/05/14 08:47:48;;;;;;;5.90;4.35;;;;;;;23.05;72.58;91034.25;5033145;28;20025;-72
2022/05/14 08:50:15;;;;;;;4.28;3.75;;;;;;;22.82;75.63;91019.03;5032397;28;20095;-70
2022/05/14 08:52:41;;;;;;;4.72;3.60;;;;;;;23.06;72.56;91030.38;5033114;28;20033;-70
2022/05/14 08:55:12;;;;;;;7.57;4.88;;;;;;;22.52;77.37;91034.75;5033104;28;20034;-69
2022/05/14 08:58:04;;;;;;;5.82;4.20;;;;;;;21.65;81.21;91034.47;5032448;28;20036;-71
2022/05/14 09:00:29;;;;;;;7.90;4.35;;;;;;;21.11;87.78;91036.63;5030868;28;20099;-65
2022/05/14 09:02:55;;;;;;;6.28;4.88;;;;;;;21.21;89.08;91035.19;5032856;28;20026;-67
2022/05/14 09:05:34;;;;;;;6.18;4.47;;;;;;;21.34;87.50;91022.19;5032802;28;20488;-66
2022/05/14 09:08:01;;;;;;;5.57;4.30;;;;;;;21.51;85.70;91027.00;5032987;28;20079;-66
2022/05/14 09:10:54;;;;;;;6.10;3.90;;;;;;;21.54;85.54;91028.97;5032777;28;20053;-66
2022/05/14 09:14:00;;;;;;;5.50;4.43;;;;;;;22.16;82.73;91029.09;5032388;28;20033;-61
2022/05/14 09:16:37;;;;;;;4.82;3.85;;;;;;;21.71;81.63;91025.63;5032689;28;20175;-60
2022/05/14 09:19:33;;;;;;;7.70;4.90;;;;;;;21.72;84.97;91035.31;5032622;28;20451;-63
2022/05/14 09:21:58;;;;;;;5.20;3.97;;;;;;;22.95;74.67;91030.34;5031602;28;20052;-63
2022/05/14 09:24:27;;;;;;;8.48;4.20;;;;;;;24.40;66.44;91032.50;5032380;28;20021;-63
2022/05/14 09:26:56;;;;;;;5.78;3.10;;;;;;;25.88;60.02;91031.56;5032480;28;20034;-65
2022/05/14 09:29:39;;;;;;;4.55;3.47;;;;;;;27.14;53.95;91033.56;5032071;28;20029;-66
2022/05/14 09:32:06;;;;;;;;;;;;;;;27.13;54.09;91042.16;5032805;28;20053;-71
2022/05/14 09:34:34;;;;;;;5.43;3.75;;;;;;;28.78;51.19;91042.16;5032514;28;19909;-72
2022/05/14 09:37:07;;;;;;;6.53;4.20;;;;;;;30.89;46.23;91039.22;5032304;28;20082;-72
2022/05/14 09:39:32;;;;;;;5.03;3.78;;;;;;;31.07;44.01;91036.03;5032777;28;20034;-72
2022/05/14 09:42:02;;;;;;;3.97;3.38;;;;;;;29.88;44.51;91038.47;5032306;28;20029;-72
2022/05/14 09:44:34;;;;;;;4.28;3.78;;;;;;;29.39;45.76;91036.34;5032377;28;20029;-72
2022/05/14 09:47:10;;;;;;;4.95;3.85;;;;;;;29.84;45.70;91032.31;5032252;28;20053;-72
2022/05/14 09:49:41;;;;;;;4.30;3.90;;;;;;;31.29;43.76;91022.50;5032065;28;20077;-72
2022/05/14 09:52:10;;;;;;;4.45;3.63;;;;;;;31.61;43.73;91021.63;5032212;28;20068;-72
2022/05/14 09:54:46;;;;;;;6.18;3.70;;;;;;;31.98;41.78;91025.66;5032133;28;20025;-72
2022/05/14 09:57:45;;;;;;;4.18;3.40;;;;;;;33.01;38.66;91008.63;5032006;28;20028;-72
2022/05/14 10:00:38;;;;;;;4.40;3.03;;;;;;;32.44;38.93;91004.97;5032025;28;20064;-72
2022/05/14 10:03:13;;;;;;;3.65;2.75;;;;;;;29.85;40.11;91001.72;5026606;28;20056;-72
2022/05/14 10:05:45;;;;;;;3.38;3.08;;;;;;;28.46;45.10;90998.91;5032001;28;20030;-71
2022/05/14 10:08:41;;;;;;;4.57;3.00;;;;;;;27.37;46.28;90991.13;5031705;28;20029;-71
2022/05/14 10:11:26;;;;;;;3.40;2.95;;;;;;;26.84;47.00;90992.53;5031846;28;20079;-71
2022/05/14 10:14:04;;;;;;;4.00;3.15;;;;;;;27.04;48.00;90992.72;5031736;28;20510;-71
2022/05/14 10:16:58;;;;;;;4.78;3.00;;;;;;;27.35;47.31;90998.97;5031636;28;20030;-71
2022/05/14 10:19:26;;;;;;;3.38;3.00;;;;;;;27.03;47.74;90994.69;5031663;28;20029;-71
2022/05/14 10:22:23;;;;;;;5.32;2.65;;;;;;;26.08;46.10;90990.91;5031487;28;20030;-70
2022/05/14 10:28:19;;;;;;;3.92;3.53;;;;;;;28.64;44.53;90995.84;5009634;28;20033;-71
2022/05/14 10:31:03;;;;;;;4.72;3.10;;;;;;;32.21;40.18;90997.03;5009597;28;20519;-71
2022/05/14 10:33:30;;;;;;;3.53;2.95;;;;;;;34.60;34.47;91003.16;5025061;28;20045;-71
2022/05/14 10:36:05;;;;;;;3.55;2.95;;;;;;;34.81;33.47;90999.50;5031671;28;20022;-72
2022/05/14 10:38:40;;;;;;;6.65;3.15;;;;;;;31.17;37.55;90999.25;5033194;28;20038;-71
2022/05/14 10:41:07;;;;;;;5.25;2.80;;;;;;;29.16;40.08;90992.56;5032852;28;20403;-71
2022/05/14 10:43:54;;;;;;;4.47;3.13;;;;;;;29.81;40.49;90996.28;5032974;28;20030;-71
2022/05/14 10:46:22;;;;;;;4.75;3.53;;;;;;;29.62;40.09;90993.59;5031253;28;20021;-71
2022/05/14 10:49:03;;;;;;;2.63;2.42;;;;;;;28.99;40.46;90980.75;5030815;28;20069;-72
2022/05/14 10:51:34;;;;;;;6.72;2.97;;;;;;;30.66;38.84;90984.53;5031092;28;20045;-71
2022/05/14 10:54:01;;;;;;;2.80;2.25;;;;;;;29.44;40.00;90978.28;5030907;28;20071;-71
2022/05/14 10:56:49;;;;;;;3.03;2.17;;;;;;;29.57;42.74;90996.84;5030958;28;20048;-71
2022/05/14 10:59:15;;;;;;;3.28;2.47;;;;;;;28.08;44.04;91005.75;5031015;28;20451;-71
2022/05/14 11:01:52;;;;;;;8.77;2.80;;;;;;;27.37;46.15;91007.53;5030923;28;20033;-71
2022/05/14 11:04:29;;;;;;;2.90;2.47;;;;;;;26.74;46.87;91018.75;5030840;28;20057;-71
2022/05/14 11:06:58;;;;;;;3.58;2.70;;;;;;;25.77;48.09;91006.34;5029516;28;20044;-71
2022/05/14 11:09:39;;;;;;;6.43;2.83;;;;;;;25.50;50.15;91022.44;5030943;28;20164;-71
2022/05/14 11:12:30;;;;;;;3.78;2.90;;;;;;;24.54;51.70;91028.22;5030914;28;20416;-71
2022/05/14 11:14:58;;;;;;;7.22;3.20;;;;;;;24.54;51.46;91039.88;5033929;28;20025;-71
2022/05/14 11:17:40;;;;;;;4.30;3.30;;;;;;;23.31;54.18;91031.22;5034817;28;20030;-71
2022/05/14 11:20:08;;;;;;;3.20;2.83;;;;;;;22.27;56.94;91046.22;5033680;28;20112;-71
2022/05/14 11:23:04;;;;;;;6.15;3.92;;;;;;;21.84;62.33;91053.22;5033154;28;20040;-72
2022/05/14 11:25:30;;;;;;;3.90;3.22;;;;;;;20.99;65.01;91050.41;5014805;28;20029;-71
2022/05/14 11:28:08;;;;;;;6.93;3.75;;;;;;;20.77;71.87;91056.69;5014871;28;20087;-72
2022/05/14 11:30:45;;;;;;;5.53;3.30;;;;;;;20.57;81.80;91054.13;5015028;28;20058;-68
2022/05/14 11:33:22;;;;;;;3.33;2.80;;;;;;;19.93;91.13;91037.00;5014972;28;20088;-68
2022/05/14 11:35:49;;;;;;;4.57;3.70;;;;;;;19.94;97.16;91046.66;5014970;28;20021;-69
2022/05/14 11:38:24;;;;;;;4.50;3.35;;;;;;;19.79;100.00;91055.66;5014841;28;20091;-68
2022/05/14 11:41:06;;;;;;;4.78;3.33;;;;;;;20.14;100.00;91050.03;5015938;28;20428;-70
2022/05/14 11:43:37;;;;;;;6.80;3.55;;;;;;;20.58;95.59;91052.22;5032283;28;20031;-70
2022/05/14 11:46:08;;;;;;;6.30;3.42;;;;;;;21.44;86.68;91056.69;5029493;28;20116;-70
2022/05/14 11:48:44;;;;;;;4.43;3.00;;;;;;;21.66;82.91;91053.06;5029413;28;20474;-67
2022/05/14 11:51:22;;;;;;;4.25;3.30;;;;;;;20.63;84.93;91063.47;5031741;28;20041;-66
2022/05/14 11:54:01;;;;;;;4.30;2.90;;;;;;;20.53;89.15;91064.13;5031515;28;20039;-66